createdAt,value
2023-05-19T00:00:16.653Z,8.69
2023-05-19T00:01:17.230Z,8.72
2023-05-19T00:02:17.129Z,8.75
2023-05-19T00:03:16.861Z,8.74
2023-05-19T00:04:16.575Z,8.72
2023-05-19T00:05:17.209Z,8.72
2023-05-19T00:06:16.886Z,8.67
2023-05-19T00:07:16.563Z,8.67
2023-05-19T00:08:17.093Z,8.65
2023-05-19T00:09:16.689Z,8.67
2023-05-19T00:10:17.254Z,8.67
2023-05-19T00:11:16.844Z,8.63
2023-05-19T00:12:16.527Z,8.64
2023-05-19T00:13:17.081Z,8.58
2023-05-19T00:14:16.633Z,8.57
2023-05-19T00:15:17.229Z,8.57
2023-05-19T00:16:16.925Z,8.54
2023-05-19T00:17:16.559Z,8.56
2023-05-19T00:18:17.149Z,8.54
2023-05-19T00:19:16.790Z,8.53
2023-05-19T00:20:16.649Z,8.56
2023-05-19T00:21:17.206Z,8.54
2023-05-19T00:22:16.541Z,8.54
2023-05-19T00:23:16.334Z,8.54
2023-05-19T00:24:16.894Z,8.56
2023-05-19T00:25:16.474Z,8.56
2023-05-19T00:26:17.051Z,8.57
2023-05-19T00:27:16.602Z,8.60
2023-05-19T00:28:17.161Z,8.60
2023-05-19T00:29:16.929Z,8.57
2023-05-19T00:30:16.540Z,8.57
2023-05-19T00:31:17.198Z,8.57
2023-05-19T00:32:16.796Z,8.56
2023-05-19T00:33:16.632Z,8.56
2023-05-19T00:34:17.190Z,8.57
2023-05-19T00:35:16.759Z,8.56
2023-05-19T00:36:16.341Z,8.54
2023-05-19T00:37:16.906Z,8.51
2023-05-19T00:38:16.444Z,8.50
2023-05-19T00:39:16.989Z,8.44
2023-05-19T00:40:16.573Z,8.44
2023-05-19T00:41:17.117Z,8.46
2023-05-19T00:42:16.573Z,8.48
2023-05-19T00:43:17.168Z,8.50
2023-05-19T00:44:16.711Z,8.50
2023-05-19T00:45:17.268Z,8.53
2023-05-19T00:46:16.835Z,8.51
2023-05-19T00:47:16.465Z,8.51
2023-05-19T00:48:17.100Z,8.54
2023-05-19T00:49:16.698Z,8.54
2023-05-19T00:50:17.261Z,8.56
2023-05-19T00:51:17.119Z,8.57
2023-05-19T00:52:16.844Z,8.58
2023-05-19T00:53:16.394Z,8.58
2023-05-19T00:54:16.945Z,8.63
2023-05-19T00:55:16.467Z,8.64
2023-05-19T00:56:17.101Z,8.65
2023-05-19T00:57:16.679Z,8.64
2023-05-19T00:58:17.206Z,8.67
2023-05-19T00:59:16.766Z,8.67
2023-05-19T01:00:16.352Z,8.68
2023-05-19T01:01:16.921Z,8.72
2023-05-19T01:02:17.290Z,8.75
2023-05-19T01:03:16.917Z,8.76
2023-05-19T01:04:16.653Z,8.78
2023-05-19T01:05:17.218Z,8.79
2023-05-19T01:06:16.751Z,8.84
2023-05-19T01:07:17.284Z,8.84
2023-05-19T01:08:16.828Z,8.87
2023-05-19T01:09:16.407Z,8.87
2023-05-19T01:10:16.949Z,8.87
2023-05-19T01:11:16.529Z,8.94
2023-05-19T01:12:17.041Z,8.95
2023-05-19T01:13:16.653Z,8.98
2023-05-19T01:14:17.294Z,8.98
2023-05-19T01:15:16.925Z,8.98
2023-05-19T01:16:16.556Z,8.99
2023-05-19T01:17:17.188Z,8.98
2023-05-19T01:18:16.749Z,9.03
2023-05-19T01:19:16.343Z,9.05
2023-05-19T01:20:17.016Z,9.09
2023-05-19T01:21:16.620Z,9.08
2023-05-19T01:22:17.058Z,9.12
2023-05-19T01:23:16.635Z,9.12
2023-05-19T01:24:17.252Z,9.13
2023-05-19T01:25:16.839Z,9.19
2023-05-19T01:26:16.398Z,9.20
2023-05-19T01:27:16.958Z,9.20
2023-05-19T01:28:16.542Z,9.19
2023-05-19T01:29:17.128Z,9.19
2023-05-19T01:30:16.675Z,9.23
2023-05-19T01:31:17.212Z,9.22
2023-05-19T01:32:16.832Z,9.23
2023-05-19T01:33:16.437Z,9.25
2023-05-19T01:34:16.994Z,9.25
2023-05-19T01:35:16.639Z,9.29
2023-05-19T01:36:17.261Z,9.30
2023-05-19T01:37:16.814Z,9.31
2023-05-19T01:38:16.429Z,9.33
2023-05-19T01:39:17.038Z,9.29
2023-05-19T01:40:16.710Z,9.26
2023-05-19T01:41:16.375Z,9.23
2023-05-19T01:42:16.654Z,9.26
2023-05-19T01:43:17.239Z,9.26
2023-05-19T01:44:16.798Z,9.27
2023-05-19T01:45:16.373Z,9.26
2023-05-19T01:46:17.050Z,9.27
2023-05-19T01:47:16.769Z,9.30
2023-05-19T01:48:16.470Z,9.34
2023-05-19T01:49:17.143Z,9.36
2023-05-19T01:50:16.711Z,9.34
2023-05-19T01:51:17.350Z,9.31
2023-05-19T01:52:16.593Z,9.31
2023-05-19T01:53:17.160Z,9.33
2023-05-19T01:54:16.707Z,9.31
2023-05-19T01:55:17.257Z,9.33
2023-05-19T01:56:16.892Z,9.36
2023-05-19T01:57:16.425Z,9.36
2023-05-19T01:58:16.959Z,9.34
2023-05-19T01:59:16.532Z,9.36
2023-05-19T02:00:17.828Z,9.38
2023-05-19T02:01:16.702Z,9.40
2023-05-19T02:02:17.091Z,9.38
2023-05-19T02:03:16.641Z,9.38
2023-05-19T02:04:17.232Z,9.37
2023-05-19T02:05:16.823Z,9.38
2023-05-19T02:06:16.364Z,9.37
2023-05-19T02:07:16.911Z,9.41
2023-05-19T02:08:16.470Z,9.40
2023-05-19T02:09:17.027Z,9.38
2023-05-19T02:10:16.582Z,9.41
2023-05-19T02:11:17.114Z,9.38
2023-05-19T02:12:16.738Z,9.40
2023-05-19T02:13:17.317Z,9.38
2023-05-19T02:14:16.878Z,9.41
2023-05-19T02:15:16.452Z,9.41
2023-05-19T02:16:17.050Z,9.41
2023-05-19T02:17:16.678Z,9.44
2023-05-19T02:18:17.232Z,9.44
2023-05-19T02:19:16.801Z,9.44
2023-05-19T02:20:16.473Z,9.47
2023-05-19T02:21:17.003Z,9.46
2023-05-19T02:22:16.860Z,9.44
2023-05-19T02:23:16.412Z,9.47
2023-05-19T02:24:16.978Z,9.50
2023-05-19T02:25:16.525Z,9.55
2023-05-19T02:26:17.063Z,9.55
2023-05-19T02:27:16.628Z,9.55
2023-05-19T02:28:17.188Z,9.57
2023-05-19T02:29:16.743Z,9.57
2023-05-19T02:30:17.301Z,9.61
2023-05-19T02:31:16.864Z,9.58
2023-05-19T02:32:16.872Z,9.58
2023-05-19T02:33:16.511Z,9.55
2023-05-19T02:34:17.054Z,9.53
2023-05-19T02:35:16.633Z,9.55
2023-05-19T02:36:17.197Z,9.53
2023-05-19T02:37:16.762Z,9.50
2023-05-19T02:38:17.351Z,9.50
2023-05-19T02:39:16.914Z,9.48
2023-05-19T02:40:16.457Z,9.51
2023-05-19T02:41:17.020Z,9.51
2023-05-19T02:42:16.500Z,9.51
2023-05-19T02:43:17.055Z,9.51
2023-05-19T02:44:16.632Z,9.53
2023-05-19T02:45:16.626Z,9.54
2023-05-19T02:46:17.193Z,9.55
2023-05-19T02:47:16.773Z,9.55
2023-05-19T02:48:16.338Z,9.54
2023-05-19T02:49:16.916Z,9.54
2023-05-19T02:50:16.511Z,9.57
2023-05-19T02:51:17.214Z,9.57
2023-05-19T02:52:17.043Z,9.59
2023-05-19T02:53:16.699Z,9.62
2023-05-19T02:54:17.302Z,9.64
2023-05-19T02:55:16.879Z,9.65
2023-05-19T02:56:16.535Z,9.68
2023-05-19T02:57:17.058Z,9.68
2023-05-19T02:58:16.577Z,9.69
2023-05-19T02:59:17.109Z,9.72
2023-05-19T03:00:16.688Z,9.71
2023-05-19T03:01:17.265Z,9.76
2023-05-19T03:02:16.786Z,9.80
2023-05-19T03:03:16.492Z,9.81
2023-05-19T03:04:17.220Z,9.82
2023-05-19T03:05:16.819Z,9.82
2023-05-19T03:06:16.404Z,9.86
2023-05-19T03:07:16.975Z,9.89
2023-05-19T03:08:16.516Z,9.92
2023-05-19T03:09:17.043Z,9.92
2023-05-19T03:10:16.622Z,9.95
2023-05-19T03:11:17.204Z,9.95
2023-05-19T03:12:16.472Z,9.95
2023-05-19T03:13:17.032Z,10.00
2023-05-19T03:14:16.592Z,10.03
2023-05-19T03:15:17.183Z,10.05
2023-05-19T03:16:16.789Z,10.05
2023-05-19T03:17:16.438Z,10.05
2023-05-19T03:18:17.061Z,10.05
2023-05-19T03:19:16.796Z,10.06
2023-05-19T03:20:16.458Z,10.06
2023-05-19T03:21:17.000Z,10.06
2023-05-19T03:22:16.318Z,10.06
2023-05-19T03:23:16.857Z,10.06
2023-05-19T03:24:16.426Z,10.06
2023-05-19T03:25:16.988Z,10.08
2023-05-19T03:26:16.536Z,10.08
2023-05-19T03:27:17.087Z,10.09
2023-05-19T03:28:16.635Z,10.09
2023-05-19T03:29:17.234Z,10.10
2023-05-19T03:30:16.816Z,10.09
2023-05-19T03:31:16.389Z,10.09
2023-05-19T03:32:16.972Z,10.10
2023-05-19T03:33:16.719Z,10.13
2023-05-19T03:34:16.581Z,10.17
2023-05-19T03:35:17.149Z,10.19
2023-05-19T03:36:16.683Z,10.17
2023-05-19T03:37:17.241Z,10.21
2023-05-19T03:38:16.808Z,10.20
2023-05-19T03:39:16.368Z,10.16
2023-05-19T03:40:16.906Z,10.12
2023-05-19T03:41:16.475Z,10.09
2023-05-19T03:42:17.109Z,10.08
2023-05-19T03:43:16.686Z,10.08
2023-05-19T03:44:17.255Z,10.09
2023-05-19T03:45:16.900Z,10.08
2023-05-19T03:46:16.522Z,10.10
2023-05-19T03:47:17.154Z,10.08
2023-05-19T03:48:17.501Z,10.09
2023-05-19T03:49:16.524Z,10.08
2023-05-19T03:50:17.117Z,10.10
2023-05-19T03:51:16.673Z,10.10
2023-05-19T03:52:16.420Z,10.13
2023-05-19T03:53:16.971Z,10.10
2023-05-19T03:54:16.534Z,10.10
2023-05-19T03:55:17.069Z,10.12
2023-05-19T03:56:16.643Z,10.10
2023-05-19T03:57:17.214Z,10.13
2023-05-19T03:58:16.797Z,10.14
2023-05-19T03:59:16.443Z,10.17
2023-05-19T04:00:17.070Z,10.19
2023-05-19T04:01:16.614Z,10.19
2023-05-19T04:02:17.260Z,10.23
2023-05-19T04:03:16.980Z,10.23
2023-05-19T04:04:16.801Z,10.24
2023-05-19T04:05:16.387Z,10.26
2023-05-19T04:06:16.929Z,10.28
2023-05-19T04:07:16.505Z,10.30
2023-05-19T04:08:17.035Z,10.33
2023-05-19T04:09:16.614Z,10.33
2023-05-19T04:10:17.209Z,10.37
2023-05-19T04:11:16.790Z,10.38
2023-05-19T04:12:16.365Z,10.40
2023-05-19T04:13:16.911Z,10.44
2023-05-19T04:14:16.492Z,10.44
2023-05-19T04:15:17.073Z,10.44
2023-05-19T04:16:16.627Z,10.48
2023-05-19T04:17:17.312Z,10.49
2023-05-19T04:18:16.873Z,10.54
2023-05-19T04:19:16.478Z,10.54
2023-05-19T04:20:17.139Z,10.55
2023-05-19T04:21:16.692Z,10.55
2023-05-19T04:22:17.105Z,10.57
2023-05-19T04:23:16.673Z,10.60
2023-05-19T04:24:17.278Z,10.60
2023-05-19T04:25:16.838Z,10.64
2023-05-19T04:26:16.444Z,10.64
2023-05-19T04:27:16.996Z,10.65
2023-05-19T04:28:16.554Z,10.65
2023-05-19T04:29:17.171Z,10.65
2023-05-19T04:30:18.401Z,10.65
2023-05-19T04:31:17.291Z,10.68
2023-05-19T04:32:16.903Z,10.72
2023-05-19T04:33:16.436Z,10.72
2023-05-19T04:34:17.002Z,10.72
2023-05-19T04:35:16.605Z,10.75
2023-05-19T04:36:17.154Z,10.78
2023-05-19T04:37:16.775Z,10.83
2023-05-19T04:38:16.345Z,10.81
2023-05-19T04:39:16.930Z,10.82
2023-05-19T04:40:16.530Z,10.82
2023-05-19T04:41:17.080Z,10.85
2023-05-19T04:42:16.496Z,10.89
2023-05-19T04:43:17.043Z,10.88
2023-05-19T04:44:16.568Z,10.86
2023-05-19T04:45:17.147Z,10.86
2023-05-19T04:46:16.705Z,10.88
2023-05-19T04:47:17.306Z,10.93
2023-05-19T04:48:16.891Z,10.95
2023-05-19T04:49:16.464Z,11.00
2023-05-19T04:50:17.093Z,11.00
2023-05-19T04:51:16.730Z,11.03
2023-05-19T04:52:16.414Z,11.07
2023-05-19T04:53:16.990Z,11.10
2023-05-19T04:54:16.539Z,11.14
2023-05-19T04:55:17.081Z,11.23
2023-05-19T04:56:16.650Z,11.31
2023-05-19T04:57:17.192Z,11.35
2023-05-19T04:58:16.732Z,11.30
2023-05-19T04:59:17.295Z,11.41
2023-05-19T05:00:16.860Z,11.38
2023-05-19T05:01:16.458Z,11.44
2023-05-19T05:02:16.634Z,11.45
2023-05-19T05:03:17.357Z,11.48
2023-05-19T05:04:17.259Z,11.43
2023-05-19T05:05:16.801Z,11.50
2023-05-19T05:06:16.378Z,11.52
2023-05-19T05:07:16.913Z,11.47
2023-05-19T05:08:16.432Z,11.45
2023-05-19T05:09:16.971Z,11.38
2023-05-19T05:10:16.562Z,11.37
2023-05-19T05:11:17.110Z,11.48
2023-05-19T05:12:16.932Z,11.57
2023-05-19T05:13:16.476Z,11.58
2023-05-19T05:14:17.081Z,11.62
2023-05-19T05:15:16.648Z,11.69
2023-05-19T05:16:17.206Z,11.71
2023-05-19T05:17:16.802Z,11.80
2023-05-19T05:18:16.348Z,11.82
2023-05-19T05:19:16.917Z,11.83
2023-05-19T05:20:16.577Z,11.90
2023-05-19T05:21:17.133Z,11.92
2023-05-19T05:22:16.878Z,11.99
2023-05-19T05:23:16.432Z,12.06
2023-05-19T05:24:17.025Z,12.13
2023-05-19T05:25:16.557Z,12.17
2023-05-19T05:26:17.117Z,12.19
2023-05-19T05:27:16.660Z,12.03
2023-05-19T05:28:17.210Z,11.99
2023-05-19T05:29:16.776Z,12.01
2023-05-19T05:30:16.349Z,12.07
2023-05-19T05:31:16.915Z,12.23
2023-05-19T05:32:16.681Z,12.34
2023-05-19T05:33:16.583Z,12.34
2023-05-19T05:34:16.388Z,12.49
2023-05-19T05:35:16.951Z,12.53
2023-05-19T05:36:16.529Z,12.58
2023-05-19T05:37:17.088Z,12.63
2023-05-19T05:38:16.635Z,12.65
2023-05-19T05:39:17.217Z,12.51
2023-05-19T05:40:16.771Z,12.51
2023-05-19T05:41:16.360Z,12.60
2023-05-19T05:42:16.991Z,12.47
2023-05-19T05:43:16.577Z,12.47
2023-05-19T05:44:17.138Z,12.56
2023-05-19T05:45:16.742Z,12.68
2023-05-19T05:46:17.317Z,12.73
2023-05-19T05:47:16.998Z,12.72
2023-05-19T05:48:16.541Z,12.49
2023-05-19T05:49:17.172Z,12.38
2023-05-19T05:50:16.727Z,12.52
2023-05-19T05:51:17.262Z,12.42
2023-05-19T05:52:16.599Z,12.20
2023-05-19T05:53:17.143Z,12.35
2023-05-19T05:54:16.672Z,12.53
2023-05-19T05:55:17.234Z,12.45
2023-05-19T05:56:16.878Z,12.12
2023-05-19T05:57:16.453Z,12.14
2023-05-19T05:58:17.055Z,12.37
2023-05-19T05:59:16.586Z,12.42
2023-05-19T06:00:17.157Z,12.20
2023-05-19T06:01:16.748Z,12.20
2023-05-19T06:02:16.510Z,12.23
2023-05-19T06:03:17.306Z,12.40
2023-05-19T06:04:17.219Z,12.14
2023-05-19T06:05:16.829Z,12.00
2023-05-19T06:06:16.446Z,12.03
2023-05-19T06:07:16.998Z,12.08
2023-05-19T06:08:16.608Z,12.06
2023-05-19T06:09:17.253Z,12.28
2023-05-19T06:10:16.845Z,12.38
2023-05-19T06:11:16.415Z,12.45
2023-05-19T06:12:16.869Z,12.42
2023-05-19T06:13:16.436Z,12.30
2023-05-19T06:14:17.006Z,12.23
2023-05-19T06:15:16.732Z,12.34
2023-05-19T06:16:17.319Z,12.49
2023-05-19T06:17:16.955Z,12.41
2023-05-19T06:18:16.506Z,12.49
2023-05-19T06:19:17.096Z,12.32
2023-05-19T06:20:16.723Z,12.30
2023-05-19T06:21:17.285Z,12.17
2023-05-19T06:22:16.914Z,12.28
2023-05-19T06:23:16.458Z,12.48
2023-05-19T06:24:17.014Z,12.63
2023-05-19T06:25:16.571Z,12.63
2023-05-19T06:26:17.181Z,12.68
2023-05-19T06:27:16.810Z,12.75
2023-05-19T06:28:16.337Z,12.77
2023-05-19T06:29:16.875Z,12.83
2023-05-19T06:30:16.414Z,12.88
2023-05-19T06:31:16.970Z,12.82
2023-05-19T06:32:16.596Z,12.90
2023-05-19T06:33:17.138Z,12.68
2023-05-19T06:34:16.699Z,12.77
2023-05-19T06:35:17.257Z,12.75
2023-05-19T06:36:16.813Z,12.80
2023-05-19T06:37:16.544Z,12.90
2023-05-19T06:38:17.109Z,12.99
2023-05-19T06:39:16.678Z,13.21
2023-05-19T06:40:17.237Z,13.20
2023-05-19T06:41:16.784Z,13.32
2023-05-19T06:42:16.396Z,13.32
2023-05-19T06:43:16.950Z,13.30
2023-05-19T06:44:16.511Z,13.38
2023-05-19T06:45:16.488Z,13.59
2023-05-19T06:46:17.041Z,13.41
2023-05-19T06:47:16.816Z,13.53
2023-05-19T06:48:16.575Z,13.82
2023-05-19T06:49:17.323Z,13.76
2023-05-19T06:50:16.896Z,13.73
2023-05-19T06:51:16.461Z,13.59
2023-05-19T06:52:16.958Z,13.60
2023-05-19T06:53:16.572Z,13.15
2023-05-19T06:54:17.140Z,13.21
2023-05-19T06:55:16.695Z,13.60
2023-05-19T06:56:17.235Z,13.89
2023-05-19T06:57:16.779Z,13.94
2023-05-19T06:58:16.344Z,14.12
2023-05-19T06:59:16.894Z,14.36
2023-05-19T07:00:18.764Z,14.40
2023-05-19T07:01:16.735Z,14.32
2023-05-19T07:02:16.717Z,14.05
2023-05-19T07:03:16.582Z,13.70
2023-05-19T07:04:16.722Z,13.66
2023-05-19T07:05:16.387Z,13.53
2023-05-19T07:06:16.479Z,13.50
2023-05-19T07:07:17.078Z,13.50
2023-05-19T07:08:16.616Z,13.35
2023-05-19T07:09:17.195Z,13.45
2023-05-19T07:10:16.762Z,13.45
2023-05-19T07:11:16.312Z,13.69
2023-05-19T07:12:17.299Z,13.93
2023-05-19T07:13:16.888Z,13.75
2023-05-19T07:14:16.504Z,13.66
2023-05-19T07:15:17.075Z,13.66
2023-05-19T07:16:16.712Z,13.77
2023-05-19T07:17:16.519Z,13.97
2023-05-19T07:18:17.082Z,14.08
2023-05-19T07:19:16.693Z,14.08
2023-05-19T07:20:16.430Z,14.15
2023-05-19T07:21:16.987Z,14.32
2023-05-19T07:22:16.393Z,14.42
2023-05-19T07:23:17.525Z,14.32
2023-05-19T07:24:17.176Z,14.38
2023-05-19T07:25:16.741Z,14.05
2023-05-19T07:26:17.283Z,14.01
2023-05-19T07:27:16.831Z,14.11
2023-05-19T07:28:16.360Z,14.10
2023-05-19T07:29:16.881Z,14.01
2023-05-19T07:30:16.418Z,13.76
2023-05-19T07:31:16.981Z,13.66
2023-05-19T07:32:16.728Z,13.80
2023-05-19T07:33:16.460Z,13.70
2023-05-19T07:34:17.168Z,13.65
2023-05-19T07:35:16.747Z,13.96
2023-05-19T07:36:17.310Z,13.90
2023-05-19T07:37:16.887Z,13.77
2023-05-19T07:38:16.411Z,14.15
2023-05-19T07:39:16.974Z,14.27
2023-05-19T07:40:16.718Z,14.05
2023-05-19T07:41:17.293Z,14.07
2023-05-19T07:42:16.966Z,13.72
2023-05-19T07:43:16.534Z,13.79
2023-05-19T07:44:17.094Z,14.01
2023-05-19T07:45:16.681Z,14.60
2023-05-19T07:46:17.305Z,14.87
2023-05-19T07:47:16.994Z,14.49
2023-05-19T07:48:16.591Z,14.56
2023-05-19T07:49:16.388Z,15.29
2023-05-19T07:50:16.970Z,16.25
2023-05-19T07:51:16.523Z,16.42
2023-05-19T07:52:16.882Z,15.85
2023-05-19T07:53:16.432Z,16.14
2023-05-19T07:54:17.004Z,16.57
2023-05-19T07:55:16.546Z,16.49
2023-05-19T07:56:17.109Z,17.47
2023-05-19T07:57:16.659Z,17.99
2023-05-19T07:58:17.212Z,18.08
2023-05-19T07:59:16.822Z,18.50
2023-05-19T08:00:16.415Z,17.81
2023-05-19T08:01:16.982Z,17.60
2023-05-19T08:02:16.798Z,17.15
2023-05-19T08:03:16.611Z,17.49
2023-05-19T08:04:16.500Z,18.17
2023-05-19T08:05:17.253Z,18.05
2023-05-19T08:06:16.828Z,17.99
2023-05-19T08:07:16.371Z,17.46
2023-05-19T08:08:16.983Z,17.66
2023-05-19T08:09:16.575Z,16.36
2023-05-19T08:10:17.120Z,16.32
2023-05-19T08:11:16.677Z,16.81
2023-05-19T08:12:16.421Z,16.78
2023-05-19T08:13:16.991Z,16.52
2023-05-19T08:14:16.587Z,16.94
2023-05-19T08:15:17.182Z,17.01
2023-05-19T08:16:16.856Z,17.36
2023-05-19T08:17:16.594Z,17.15
2023-05-19T08:18:17.181Z,16.14
2023-05-19T08:19:16.764Z,15.98
2023-05-19T08:20:16.431Z,16.32
2023-05-19T08:21:16.992Z,16.26
2023-05-19T08:22:16.536Z,16.47
2023-05-19T08:23:17.085Z,16.17
2023-05-19T08:24:16.636Z,16.22
2023-05-19T08:25:17.212Z,16.15
2023-05-19T08:26:16.757Z,16.17
2023-05-19T08:27:17.305Z,15.52
2023-05-19T08:28:16.874Z,15.72
2023-05-19T08:29:16.471Z,15.80
2023-05-19T08:30:17.072Z,16.11
2023-05-19T08:31:16.673Z,16.15
2023-05-19T08:32:16.368Z,16.15
2023-05-19T08:33:16.962Z,15.97
2023-05-19T08:34:16.545Z,16.00
2023-05-19T08:35:17.115Z,15.76
2023-05-19T08:36:16.644Z,15.76
2023-05-19T08:37:17.177Z,15.78
2023-05-19T08:38:16.753Z,15.80
2023-05-19T08:39:16.381Z,16.04
2023-05-19T08:40:16.941Z,16.18
2023-05-19T08:41:16.552Z,15.76
2023-05-19T08:42:17.046Z,15.23
2023-05-19T08:43:16.653Z,15.34
2023-05-19T08:44:18.229Z,15.21
2023-05-19T08:45:16.657Z,15.59
2023-05-19T08:46:17.260Z,15.46
2023-05-19T08:47:16.917Z,15.47
2023-05-19T08:48:16.520Z,15.56
2023-05-19T08:49:17.133Z,15.45
2023-05-19T08:50:16.749Z,15.29
2023-05-19T08:51:17.309Z,15.31
2023-05-19T08:52:17.061Z,15.31
2023-05-19T08:53:31.670Z,15.11
2023-05-19T08:54:17.097Z,15.19
2023-05-19T08:55:16.681Z,15.43
2023-05-19T08:56:17.259Z,15.42
2023-05-19T08:57:16.797Z,15.42
2023-05-19T08:58:16.373Z,15.31
2023-05-19T08:59:17.010Z,15.31
2023-05-19T09:00:16.623Z,15.11
2023-05-19T09:01:17.277Z,14.90
2023-05-19T09:02:16.432Z,15.12
2023-05-19T09:03:22.954Z,14.94
2023-05-19T09:04:16.721Z,14.77
2023-05-19T09:05:16.567Z,14.84
2023-05-19T09:06:17.186Z,15.07
2023-05-19T09:07:16.743Z,15.25
2023-05-19T09:08:17.299Z,15.39
2023-05-19T09:09:16.870Z,15.43
2023-05-19T09:10:16.446Z,15.17
2023-05-19T09:11:17.014Z,15.10
2023-05-19T09:12:16.445Z,15.19
2023-05-19T09:13:17.037Z,15.17
2023-05-19T09:14:16.638Z,15.01
2023-05-19T09:15:17.188Z,15.18
2023-05-19T09:16:16.765Z,15.15
2023-05-19T09:17:17.362Z,14.97
2023-05-19T09:18:16.916Z,15.18
2023-05-19T09:19:16.664Z,15.27
2023-05-19T09:20:17.266Z,15.21
2023-05-19T09:21:16.851Z,15.18
2023-05-19T09:22:16.785Z,14.98
2023-05-19T09:23:16.588Z,15.19
2023-05-19T09:24:16.358Z,15.43
2023-05-19T09:25:17.133Z,15.60
2023-05-19T09:26:16.773Z,15.36
2023-05-19T09:27:16.407Z,15.52
2023-05-19T09:28:17.007Z,15.47
2023-05-19T09:29:16.622Z,15.66
2023-05-19T09:30:17.179Z,15.97
2023-05-19T09:31:16.723Z,16.52
2023-05-19T09:32:17.297Z,16.73
2023-05-19T09:33:16.939Z,16.50
2023-05-19T09:34:16.522Z,16.92
2023-05-19T09:35:17.063Z,17.18
2023-05-19T09:36:16.659Z,18.05
2023-05-19T09:37:17.235Z,17.92
2023-05-19T09:38:16.793Z,17.89
2023-05-19T09:39:16.377Z,17.36
2023-05-19T09:40:16.945Z,17.67
2023-05-19T09:41:16.545Z,17.63
2023-05-19T09:42:17.136Z,17.33
2023-05-19T09:43:16.687Z,17.27
2023-05-19T09:44:17.255Z,17.26
2023-05-19T09:45:16.782Z,17.29
2023-05-19T09:46:16.368Z,17.56
2023-05-19T09:47:17.023Z,17.14
2023-05-19T09:48:16.553Z,17.32
2023-05-19T09:49:17.120Z,17.04
2023-05-19T09:50:16.662Z,16.47
2023-05-19T09:51:17.277Z,16.35
2023-05-19T09:52:17.099Z,16.29
2023-05-19T09:53:16.667Z,16.68
2023-05-19T09:54:17.215Z,16.74
2023-05-19T09:55:16.773Z,16.70
2023-05-19T09:56:16.330Z,16.62
2023-05-19T09:57:16.869Z,16.49
2023-05-19T09:58:16.430Z,16.73
2023-05-19T09:59:16.996Z,16.31
2023-05-19T10:00:16.598Z,16.52
2023-05-19T10:01:17.162Z,16.68
2023-05-19T10:02:16.709Z,16.60
2023-05-19T10:03:17.294Z,16.64
2023-05-19T10:04:16.854Z,16.77
2023-05-19T10:05:16.475Z,16.70
2023-05-19T10:06:16.594Z,16.54
2023-05-19T10:07:17.133Z,16.62
2023-05-19T10:08:16.663Z,16.62
2023-05-19T10:09:17.235Z,16.78
2023-05-19T10:10:16.840Z,16.70
2023-05-19T10:11:16.486Z,16.57
2023-05-19T10:12:16.893Z,16.47
2023-05-19T10:13:16.600Z,16.56
2023-05-19T10:14:17.181Z,16.71
2023-05-19T10:15:16.764Z,16.84
2023-05-19T10:16:16.335Z,16.15
2023-05-19T10:17:16.981Z,16.15
2023-05-19T10:18:16.587Z,16.49
2023-05-19T10:19:17.209Z,16.68
2023-05-19T10:20:16.910Z,16.42
2023-05-19T10:21:16.684Z,16.73
2023-05-19T10:22:16.795Z,16.97
2023-05-19T10:23:16.353Z,16.98
2023-05-19T10:24:16.891Z,17.07
2023-05-19T10:25:16.440Z,17.46
2023-05-19T10:26:17.029Z,17.63
2023-05-19T10:27:16.586Z,17.61
2023-05-19T10:28:17.127Z,17.22
2023-05-19T10:29:16.724Z,17.42
2023-05-19T10:30:17.331Z,17.26
2023-05-19T10:31:17.049Z,17.56
2023-05-19T10:32:16.565Z,17.53
2023-05-19T10:33:17.313Z,17.70
2023-05-19T10:34:17.056Z,17.01
2023-05-19T10:35:16.662Z,17.05
2023-05-19T10:36:17.309Z,17.12
2023-05-19T10:37:16.894Z,17.35
2023-05-19T10:38:16.400Z,17.49
2023-05-19T10:39:17.010Z,17.15
2023-05-19T10:40:16.612Z,16.66
2023-05-19T10:41:17.170Z,16.91
2023-05-19T10:42:16.801Z,17.02
2023-05-19T10:43:16.549Z,16.97
2023-05-19T10:44:17.175Z,17.32
2023-05-19T10:45:16.827Z,17.71
2023-05-19T10:46:16.545Z,17.85
2023-05-19T10:47:17.235Z,17.99
2023-05-19T10:48:16.989Z,18.67
2023-05-19T10:49:16.699Z,18.82
2023-05-19T10:50:17.245Z,18.94
2023-05-19T10:51:16.801Z,19.31
2023-05-19T10:52:17.052Z,18.61
2023-05-19T10:53:16.609Z,18.46
2023-05-19T10:54:17.204Z,18.92
2023-05-19T10:55:16.794Z,19.12
2023-05-19T10:56:16.410Z,19.76
2023-05-19T10:57:16.975Z,19.76
2023-05-19T10:58:16.544Z,19.78
2023-05-19T10:59:17.084Z,20.31
2023-05-19T11:00:16.738Z,20.71
2023-05-19T11:01:17.373Z,19.93
2023-05-19T11:02:16.600Z,20.09
2023-05-19T11:03:16.466Z,19.41
2023-05-19T11:04:17.098Z,18.95
2023-05-19T11:05:16.893Z,19.02
2023-05-19T11:06:16.537Z,19.36
2023-05-19T11:07:17.164Z,19.81
2023-05-19T11:08:16.875Z,19.99
2023-05-19T11:09:16.424Z,20.10
2023-05-19T11:10:17.001Z,19.79
2023-05-19T11:11:16.570Z,19.85
2023-05-19T11:12:17.152Z,20.20
2023-05-19T11:13:16.716Z,19.79
2023-05-19T11:14:17.279Z,19.53
2023-05-19T11:15:16.864Z,19.50
2023-05-19T11:16:16.466Z,18.92
2023-05-19T11:17:17.159Z,18.95
2023-05-19T11:18:16.796Z,19.20
2023-05-19T11:19:16.509Z,18.53
2023-05-19T11:20:17.107Z,18.70
2023-05-19T11:21:16.684Z,19.01
2023-05-19T11:22:17.172Z,18.79
2023-05-19T11:23:16.751Z,18.78
2023-05-19T11:24:16.375Z,19.12
2023-05-19T11:25:16.966Z,19.67
2023-05-19T11:26:16.516Z,19.64
2023-05-19T11:27:17.098Z,19.27
2023-05-19T11:28:16.732Z,19.48
2023-05-19T11:29:17.308Z,19.22
2023-05-19T11:30:16.934Z,19.20
2023-05-19T11:31:16.492Z,18.95
2023-05-19T11:32:17.146Z,19.06
2023-05-19T11:33:16.917Z,19.02
2023-05-19T11:34:16.549Z,19.03
2023-05-19T11:35:17.117Z,19.01
2023-05-19T11:36:16.698Z,19.03
2023-05-19T11:37:17.269Z,19.10
2023-05-19T11:38:16.829Z,19.30
2023-05-19T11:39:16.358Z,18.94
2023-05-19T11:40:16.930Z,18.88
2023-05-19T11:41:17.297Z,18.88
2023-05-19T11:42:17.153Z,19.01
2023-05-19T11:43:16.733Z,18.96
2023-05-19T11:44:17.330Z,19.09
2023-05-19T11:45:16.867Z,18.92
2023-05-19T11:46:16.418Z,19.17
2023-05-19T11:47:17.039Z,19.56
2023-05-19T11:48:16.661Z,19.16
2023-05-19T11:49:17.288Z,18.74
2023-05-19T11:50:16.875Z,18.72
2023-05-19T11:51:16.537Z,18.77
2023-05-19T11:52:16.967Z,18.91
2023-05-19T11:53:16.562Z,19.33
2023-05-19T11:54:17.128Z,19.78
2023-05-19T11:55:16.715Z,19.72
2023-05-19T11:56:17.289Z,19.56
2023-05-19T11:57:16.816Z,19.92
2023-05-19T11:58:16.425Z,19.96
2023-05-19T11:59:17.017Z,19.99
2023-05-19T12:00:16.582Z,19.92
2023-05-19T12:01:17.125Z,19.74
2023-05-19T12:02:16.584Z,19.89
2023-05-19T12:03:17.462Z,19.68
2023-05-19T12:04:17.318Z,19.68
2023-05-19T12:05:16.919Z,19.50
2023-05-19T12:06:16.679Z,19.64
2023-05-19T12:07:17.329Z,19.43
2023-05-19T12:08:16.972Z,19.64
2023-05-19T12:09:16.594Z,19.91
2023-05-19T12:10:17.132Z,20.13
2023-05-19T12:11:18.105Z,20.21
2023-05-19T12:12:17.139Z,20.21
2023-05-19T12:13:16.773Z,19.76
2023-05-19T12:14:17.365Z,19.88
2023-05-19T12:15:16.954Z,19.85
2023-05-19T12:16:16.576Z,19.47
2023-05-19T12:17:17.207Z,19.34
2023-05-19T12:18:16.801Z,19.27
2023-05-19T12:19:16.381Z,19.19
2023-05-19T12:20:17.030Z,19.47
2023-05-19T12:21:16.618Z,19.44
2023-05-19T12:22:17.234Z,19.61
2023-05-19T12:23:16.773Z,19.69
2023-05-19T12:24:16.325Z,19.78
2023-05-19T12:25:16.880Z,19.86
2023-05-19T12:26:16.516Z,18.99
2023-05-19T12:27:17.129Z,19.05
2023-05-19T12:28:16.724Z,19.17
2023-05-19T12:29:17.347Z,19.23
2023-05-19T12:30:16.975Z,19.14
2023-05-19T12:31:16.606Z,19.17
2023-05-19T12:32:17.214Z,19.12
2023-05-19T12:33:16.787Z,19.17
2023-05-19T12:34:16.415Z,19.33
2023-05-19T12:35:16.963Z,19.56
2023-05-19T12:36:16.504Z,19.68
2023-05-19T12:37:17.043Z,19.71
2023-05-19T12:38:16.596Z,19.61
2023-05-19T12:39:17.740Z,19.65
2023-05-19T12:40:16.494Z,19.71
2023-05-19T12:41:17.053Z,19.78
2023-05-19T12:42:16.444Z,19.89
2023-05-19T12:43:17.022Z,19.93
2023-05-19T12:44:16.633Z,20.01
2023-05-19T12:45:17.181Z,19.79
2023-05-19T12:46:16.902Z,19.76
2023-05-19T12:47:16.539Z,19.79
2023-05-19T12:48:17.177Z,19.67
2023-05-19T12:49:16.988Z,19.65
2023-05-19T12:50:16.592Z,19.67
2023-05-19T12:51:17.203Z,19.67
2023-05-19T12:52:16.463Z,19.79
2023-05-19T12:53:17.084Z,19.75
2023-05-19T12:54:16.610Z,19.67
2023-05-19T12:55:17.076Z,19.62
2023-05-19T12:56:16.642Z,19.67
2023-05-19T12:57:17.309Z,19.67
2023-05-19T12:58:16.849Z,19.64